Seminole, TX

8:37 PM CST on March 04, 2015 (GMT -0600)
Seminole | Change Station
CLOSE
Current Station
Airport
Location: Seminole,
Elevation: 3314 ft
Nearby Weather Stations
Active Advisory: Winter Weather Advisory

Elev 3314 ft 32.68 °N, 102.65 °W | Updated 42 minutes ago

Overcast
Overcast
24 °F
Feels Like 11 °F
N
18
Wind Variable Wind from NE
Gusts 28 mph

Today
High -- | Low -- °F
--% Chance of Precip.
Yesterday
High -- | Low -- °F
Precip. -- in
7:14 AM 6:50 PM
Full, 100% visible
Pressure 30.24 in
Visibility 10.0 miles
Clouds Mostly Cloudy 1700 ft
Overcast 2200 ft
Windchill 11 °F
Dew Point 20 °F
Humidity 82%
Rainfall 0.48 in
Snow Depth Not available.
UV 0 out of 12
Pollen 4.80 out of 12
Air Quality Not available.
Flu Activity Not available.
METAR KGNC 050155Z AUTO 05016G24KT 10SM BKN017 OVC022 M04/M07 A3024 RMK AO2 T10421069

More Conditions Fewer Conditions

Pressure 30.24 in
Visibility 10.0 miles
Clouds Mostly Cloudy 1700 ft
Overcast 2200 ft
Windchill 11 °F
Dew Point 20 °F
Humidity 82%
Rainfall 0.48 in
Snow Depth Not available.
UV 0 out of 12
Pollen 4.80 out of 12
Air Quality Not available.
Flu Activity Not available.
METAR KGNC 050155Z AUTO 05016G24KT 10SM BKN017 OVC022 M04/M07 A3024 RMK AO2 T10421069

More Conditions Fewer Conditions

10-Day Weather Forecast

Almanac

Astronomy

Mar. 04, 2015 Rise Set
Actual Time
Civil Twilight
Nautical Twilight
Astronomical Twilight
Moon
Length of Visible Light
Length of Day
Tomorrow will be .
, % of the Moon is Illuminated

Today's Extremes

State Highs State Lows

Community

WunderPhotos

Upload Photos

1,802,631 photos uploaded!

WunderBlogs® & News

Nearby

Air Quality

  Air Quality AQ Index Pollutant
Not available.

Snow Depth

Station Depth Elevation

Earthquake Activity

City Distance Mag. Time & Date
Minimum magnitude displayed is 2.5.

Coastal Water Temperatures

Place Temperature

Nearby Weather Stations

Winter Weather Advisory
Statement as of 1:10 PM MST on March 04, 2015

... Winter Weather Advisory remains in effect until 6 am CST /5 am
MST/ Thursday...

* event... freezing rain... sleet and snow.

* Timing... now until 6 am CST Thursday.

* Snow accumulations... less than one inch inch.

* Ice accumulations... one tenth of an inch or less.

* Impacts... accumulating ice and snow may result in slick and
hazardous roadways... particularly bridges and overpasses.

Precautionary/preparedness actions...

A Winter Weather Advisory means that periods of snow... sleet... or
freezing rain will cause travel difficulties. Be prepared for
slippery roads and limited visibilities... and use caution while
driving.